Time;durP1;ratioP1;P1;durP2;ratioP2;P2;SDS_P1;SDS_P2;PMS_P1;PMS_P2;Temp;Humidity;BMP_temperature;BMP_pressure;BME280_temperature;BME280_humidity;BME280_pressure;Samples;Min_cycle;Max_cycle;Signal;HPM_P1;HPM_P2
2023/12/03 00:01:24;;;;;;;;;;;-6.20;99.90;;;;;;5110749;28;19916;-82
2023/12/03 00:03:49;;;;;;;;;;;-6.20;99.90;;;;;;5111224;28;20596;-82
2023/12/03 00:06:15;;;;;;;;;;;-6.20;99.90;;;;;;5089923;28;19960;-82
2023/12/03 00:08:40;;;;;;;;;;;-6.40;99.90;;;;;;5077913;28;19912;-82
2023/12/03 00:11:06;;;;;;;;;;;-6.40;99.90;;;;;;5091252;28;20425;-82
2023/12/03 00:13:31;;;;;;;;;;;-6.40;99.90;;;;;;5103815;28;19920;-82
2023/12/03 00:15:57;;;;;;;;;;;-6.40;99.90;;;;;;5110795;28;19994;-81
2023/12/03 00:18:22;;;;;;;;;;;-6.40;99.90;;;;;;5090913;28;19920;-82
2023/12/03 00:20:48;;;;;;;;;;;-6.50;99.90;;;;;;5110705;28;19922;-82
2023/12/03 00:23:13;;;;;;;;;;;-6.50;99.90;;;;;;5092210;28;20299;-82
2023/12/03 00:25:38;;;;;;;;;;;-6.70;99.90;;;;;;5089258;28;19919;-82
2023/12/03 00:28:04;;;;;;;;;;;-6.80;99.90;;;;;;5091698;28;19969;-82
2023/12/03 00:30:29;;;;;;;;;;;-6.90;99.90;;;;;;5086840;28;19938;-82
2023/12/03 00:32:55;;;;;;;;;;;-6.90;99.90;;;;;;5092190;28;19961;-82
2023/12/03 00:35:20;;;;;;;;;;;-6.90;99.90;;;;;;5110004;28;19919;-82
2023/12/03 00:37:46;;;;;;;;;;;-6.80;99.90;;;;;;5088264;28;19923;-82
2023/12/03 00:40:11;;;;;;;;;;;-6.80;99.90;;;;;;5089708;28;19922;-82
2023/12/03 00:42:37;;;;;;;;;;;-6.80;99.90;;;;;;5091439;28;19967;-81
2023/12/03 00:45:02;;;;;;;;;;;-6.90;99.90;;;;;;5109219;28;19967;-82
2023/12/03 00:47:28;;;;;;;;;;;-6.90;99.90;;;;;;5084727;28;20539;-82
2023/12/03 00:49:53;;;;;;;;;;;-7.00;99.90;;;;;;5090715;28;20401;-82
2023/12/03 00:52:19;;;;;;;;;;;-7.00;99.90;;;;;;5090274;28;20279;-82
2023/12/03 00:54:44;;;;;;;;;;;-7.00;99.90;;;;;;5110275;28;20053;-81
2023/12/03 00:57:10;;;;;;;;;;;-7.10;99.90;;;;;;5110196;28;19912;-82
2023/12/03 00:59:35;;;;;;;;;;;-7.10;99.90;;;;;;5110894;28;19916;-82
2023/12/03 01:02:01;;;;;;;;;;;-7.10;99.90;;;;;;5091675;28;20076;-81
2023/12/03 01:04:26;;;;;;;;;;;-7.00;99.90;;;;;;5076072;28;19982;-82
2023/12/03 01:06:52;;;;;;;;;;;-7.10;99.90;;;;;;5076668;28;19972;-82
2023/12/03 01:09:17;;;;;;;;;;;-7.20;99.90;;;;;;5107559;28;19912;-82
2023/12/03 01:11:43;;;;;;;;;;;-7.20;99.90;;;;;;5108595;28;19960;-82
2023/12/03 01:14:08;;;;;;;;;;;-7.10;99.90;;;;;;5110468;28;19988;-82
2023/12/03 01:16:34;;;;;;;;;;;-7.10;99.90;;;;;;5084858;28;19922;-82
2023/12/03 01:18:59;;;;;;;;;;;-7.20;99.90;;;;;;5109411;28;19911;-82
2023/12/03 01:21:25;;;;;;;;;;;-7.20;99.90;;;;;;5106143;28;19965;-82
2023/12/03 01:23:50;;;;;;;;;;;-7.30;99.90;;;;;;5109697;28;19916;-82
2023/12/03 01:26:16;;;;;;;;;;;-7.30;99.90;;;;;;5109421;28;19919;-82
2023/12/03 01:28:41;;;;;;;;;;;-7.30;99.90;;;;;;5106623;28;19927;-82
2023/12/03 01:31:06;;;;;;;;;;;-7.30;99.90;;;;;;5106463;28;19916;-81
2023/12/03 01:33:32;;;;;;;;;;;-7.20;99.90;;;;;;5101698;28;19962;-82
2023/12/03 01:35:57;;;;;;;;;;;-7.20;99.90;;;;;;5104934;28;19908;-82
2023/12/03 01:38:23;;;;;;;;;;;-7.30;99.90;;;;;;5095325;28;20047;-82
2023/12/03 01:40:54;;;;;;;;;;;-7.40;99.90;;;;;;5102908;28;19915;-82
2023/12/03 01:43:19;;;;;;;;;;;-7.40;99.90;;;;;;5106711;28;19916;-82
2023/12/03 01:45:45;;;;;;;;;;;-7.50;99.90;;;;;;5112601;28;20421;-82
2023/12/03 01:48:14;;;;;;;;;;;-7.50;99.90;;;;;;5113761;28;19919;-82
2023/12/03 01:50:39;;;;;;;;;;;-7.50;99.90;;;;;;5104272;28;19922;-82
2023/12/03 01:53:05;;;;;;;;;;;-7.50;99.90;;;;;;5112466;28;20002;-82
2023/12/03 01:55:30;;;;;;;;;;;-7.60;99.90;;;;;;5087171;28;20117;-82
2023/12/03 01:57:56;;;;;;;;;;;-7.70;99.90;;;;;;5112008;28;19915;-82
2023/12/03 02:00:22;;;;;;;;;;;-7.70;99.90;;;;;;5112762;28;20488;-82
2023/12/03 02:02:47;;;;;;;;;;;-7.60;99.90;;;;;;5111754;28;19935;-81
2023/12/03 02:05:13;;;;;;;;;;;-7.70;99.90;;;;;;5112551;28;19919;-82
2023/12/03 02:07:38;;;;;;;;;;;-7.70;99.90;;;;;;5090340;28;20368;-82
2023/12/03 02:10:04;;;;;;;;;;;-7.70;99.90;;;;;;5106780;28;20316;-81
2023/12/03 02:12:30;;;;;;;;;;;-7.70;99.90;;;;;;5109442;28;19912;-82
2023/12/03 02:14:55;;;;;;;;;;;-7.70;99.90;;;;;;5091529;28;19916;-82
2023/12/03 02:17:21;;;;;;;;;;;-7.80;99.90;;;;;;5112233;28;19916;-81
2023/12/03 02:19:46;;;;;;;;;;;-7.90;99.90;;;;;;5111338;28;19920;-81
2023/12/03 02:22:12;;;;;;;;;;;-8.00;99.90;;;;;;5090398;28;19912;-81
2023/12/03 02:24:37;;;;;;;;;;;-7.90;99.90;;;;;;5111946;28;19920;-82
2023/12/03 02:27:03;;;;;;;;;;;-7.90;99.90;;;;;;5111140;28;19928;-82
2023/12/03 02:29:28;;;;;;;;;;;-8.00;99.90;;;;;;5100729;28;19915;-81
2023/12/03 02:31:54;;;;;;;;;;;-8.10;99.90;;;;;;5111356;28;20341;-81
2023/12/03 02:34:19;;;;;;;;;;;-8.20;99.90;;;;;;5112254;28;19912;-82
2023/12/03 02:36:44;;;;;;;;;;;-8.20;99.90;;;;;;5081236;28;20002;-82
2023/12/03 02:39:10;;;;;;;;;;;-8.20;99.90;;;;;;5109743;28;19915;-82
2023/12/03 02:41:35;;;;;;;;;;;-8.30;99.90;;;;;;5111695;28;20386;-82
2023/12/03 02:44:01;;;;;;;;;;;-8.20;99.90;;;;;;5112572;28;19931;-83
2023/12/03 02:46:26;;;;;;;;;;;-8.10;99.90;;;;;;5110107;28;19912;-82
2023/12/03 02:48:52;;;;;;;;;;;-8.20;99.90;;;;;;5112526;28;19922;-82
2023/12/03 02:51:17;;;;;;;;;;;-8.10;99.90;;;;;;5111261;28;19912;-82
2023/12/03 02:53:44;;;;;;;;;;;-8.00;99.90;;;;;;5112373;28;20592;-83
2023/12/03 02:56:10;;;;;;;;;;;-8.00;99.90;;;;;;5111447;28;19915;-83
2023/12/03 02:58:36;;;;;;;;;;;-8.00;99.90;;;;;;5078604;28;20637;-83
2023/12/03 03:01:05;;;;;;;;;;;-7.90;99.90;;;;;;5111920;28;19967;-83
2023/12/03 03:03:30;;;;;;;;;;;-8.00;99.90;;;;;;5073223;28;19980;-82
2023/12/03 03:05:55;;;;;;;;;;;-8.10;99.90;;;;;;5102612;28;20010;-83
2023/12/03 03:08:21;;;;;;;;;;;-8.20;99.90;;;;;;5111540;28;19923;-83
2023/12/03 03:10:46;;;;;;;;;;;-8.20;99.90;;;;;;5108599;28;20411;-83
2023/12/03 03:13:12;;;;;;;;;;;-8.20;99.90;;;;;;5103935;28;20006;-83
2023/12/03 03:15:37;;;;;;;;;;;-8.20;99.90;;;;;;5111886;28;19947;-83
2023/12/03 03:18:03;;;;;;;;;;;-8.30;99.90;;;;;;5101690;28;19916;-84
2023/12/03 03:20:29;;;;;;;;;;;-8.30;99.90;;;;;;5102014;28;19915;-84
2023/12/03 03:22:54;;;;;;;;;;;-8.20;99.90;;;;;;5111324;28;19998;-84
2023/12/03 03:25:20;;;;;;;;;;;-8.30;99.90;;;;;;5100332;28;20032;-83
2023/12/03 03:27:45;;;;;;;;;;;-8.40;99.90;;;;;;5105661;28;19923;-83
2023/12/03 03:30:11;;;;;;;;;;;-8.40;99.90;;;;;;5104066;28;19922;-84
2023/12/03 03:32:36;;;;;;;;;;;-8.40;99.90;;;;;;5108145;28;19911;-83
2023/12/03 03:35:02;;;;;;;;;;;-8.30;99.90;;;;;;5078402;28;19919;-84
2023/12/03 03:37:28;;;;;;;;;;;-8.40;99.90;;;;;;5111159;28;19911;-84
2023/12/03 03:39:53;;;;;;;;;;;-8.40;99.90;;;;;;5107027;28;20391;-84
2023/12/03 03:42:19;;;;;;;;;;;-8.40;99.90;;;;;;5111530;28;19935;-84
2023/12/03 03:44:45;;;;;;;;;;;-8.40;99.90;;;;;;5092272;28;19923;-84
2023/12/03 03:47:13;;;;;;;;;;;-8.40;99.90;;;;;;5102741;28;19916;-84
2023/12/03 03:49:39;;;;;;;;;;;-8.30;99.90;;;;;;5111192;28;19916;-84
2023/12/03 03:52:05;;;;;;;;;;;-8.30;99.90;;;;;;5093001;28;19973;-84
2023/12/03 03:54:30;;;;;;;;;;;-8.20;99.90;;;;;;5107881;28;19912;-84
2023/12/03 03:56:56;;;;;;;;;;;-8.10;99.90;;;;;;5110246;28;20375;-85
2023/12/03 03:59:21;;;;;;;;;;;-8.10;99.90;;;;;;5111457;28;19922;-84
2023/12/03 04:01:47;;;;;;;;;;;-8.10;99.90;;;;;;5108959;28;19947;-84
2023/12/03 04:04:12;;;;;;;;;;;-8.00;99.90;;;;;;5092239;28;20018;-85
2023/12/03 04:06:44;;;;;;;;;;;-7.70;99.90;;;;;;5110790;28;19916;-84
2023/12/03 04:09:10;;;;;;;;;;;-7.60;99.90;;;;;;5110802;28;19916;-85
2023/12/03 04:11:42;;;;;;;;;;;-7.40;99.90;;;;;;5086202;28;19913;-86
2023/12/03 04:14:09;;;;;;;;;;;-7.40;99.90;;;;;;5091533;28;20418;-85
2023/12/03 04:16:35;;;;;;;;;;;-7.30;99.90;;;;;;5092072;28;20303;-85
2023/12/03 04:19:00;;;;;;;;;;;-7.40;99.90;;;;;;5109754;28;19912;-85
2023/12/03 04:21:26;;;;;;;;;;;-7.40;99.90;;;;;;5109774;28;19922;-86
2023/12/03 04:23:51;;;;;;;;;;;-7.40;99.90;;;;;;5109755;28;19928;-86
2023/12/03 04:26:17;;;;;;;;;;;-7.40;99.90;;;;;;5109610;28;19911;-86
2023/12/03 04:28:43;;;;;;;;;;;-7.40;99.90;;;;;;5099383;28;19916;-85
2023/12/03 04:31:21;;;;;;;;;;;-7.20;99.90;;;;;;5090424;28;19916;-86
2023/12/03 04:33:51;;;;;;;;;;;-7.10;99.90;;;;;;5108392;28;19912;-86
2023/12/03 04:36:17;;;;;;;;;;;-6.90;99.90;;;;;;5091943;28;19916;-86
2023/12/03 04:38:42;;;;;;;;;;;-6.80;99.90;;;;;;5085919;28;19920;-86
2023/12/03 04:41:08;;;;;;;;;;;-6.70;99.90;;;;;;5110335;28;19920;-86
2023/12/03 04:43:33;;;;;;;;;;;-6.70;99.90;;;;;;5108728;28;19923;-86
2023/12/03 04:46:02;;;;;;;;;;;-6.70;99.90;;;;;;5093762;28;19915;-86
2023/12/03 04:48:28;;;;;;;;;;;-6.60;99.90;;;;;;5110258;28;20022;-86
2023/12/03 04:50:53;;;;;;;;;;;-6.60;99.90;;;;;;5110076;28;20018;-86
2023/12/03 04:53:19;;;;;;;;;;;-6.60;99.90;;;;;;5102034;28;19916;-86
2023/12/03 04:55:44;;;;;;;;;;;-6.60;99.90;;;;;;5090996;28;19918;-86
2023/12/03 04:58:09;;;;;;;;;;;-6.50;99.90;;;;;;5109369;28;19919;-86
2023/12/03 05:00:35;;;;;;;;;;;-6.50;99.90;;;;;;5091225;28;19912;-86
2023/12/03 05:03:00;;;;;;;;;;;-6.50;99.90;;;;;;5089922;28;20094;-86
2023/12/03 05:05:26;;;;;;;;;;;-6.50;99.90;;;;;;5101791;28;20009;-86
2023/12/03 05:07:51;;;;;;;;;;;-6.50;99.90;;;;;;5109740;28;19939;-86
2023/12/03 05:10:17;;;;;;;;;;;-6.50;99.90;;;;;;5088811;28;19934;-87
2023/12/03 05:12:42;;;;;;;;;;;-6.40;99.90;;;;;;5102736;27;19926;-86
2023/12/03 05:15:08;;;;;;;;;;;-6.30;99.90;;;;;;5113714;28;20014;-86
2023/12/03 05:17:33;;;;;;;;;;;-6.30;99.90;;;;;;5081814;28;19939;-87
2023/12/03 05:19:59;;;;;;;;;;;-6.40;99.90;;;;;;5073648;28;19909;-87
2023/12/03 05:22:25;;;;;;;;;;;-6.40;99.90;;;;;;5091685;28;19916;-87
2023/12/03 05:24:51;;;;;;;;;;;-6.40;99.90;;;;;;5099467;28;19920;-87
2023/12/03 05:27:16;;;;;;;;;;;-6.20;99.90;;;;;;5113292;28;19916;-87
2023/12/03 05:29:43;;;;;;;;;;;-6.20;99.90;;;;;;5112560;28;19915;-87
2023/12/03 05:32:08;;;;;;;;;;;-6.30;99.90;;;;;;5110737;28;19915;-87
2023/12/03 05:34:34;;;;;;;;;;;-6.30;99.90;;;;;;5089147;28;20322;-87
2023/12/03 05:36:59;;;;;;;;;;;-6.40;99.90;;;;;;5100701;28;19947;-86
2023/12/03 05:39:25;;;;;;;;;;;-6.30;99.90;;;;;;5102086;28;19931;-87
2023/12/03 05:41:50;;;;;;;;;;;-6.40;99.90;;;;;;5113552;28;20694;-86
2023/12/03 05:44:16;;;;;;;;;;;-6.50;99.90;;;;;;5094912;28;19985;-86
2023/12/03 05:46:42;;;;;;;;;;;-6.50;99.90;;;;;;5094482;28;19922;-88
2023/12/03 05:49:08;;;;;;;;;;;-6.50;99.90;;;;;;5113747;28;19999;-87
2023/12/03 05:51:34;;;;;;;;;;;-6.40;99.90;;;;;;5094880;28;20288;-88
2023/12/03 05:53:59;;;;;;;;;;;-6.40;99.90;;;;;;5101760;28;19916;-88
2023/12/03 05:56:25;;;;;;;;;;;-6.30;99.90;;;;;;5112327;28;19912;-87
2023/12/03 05:58:50;;;;;;;;;;;-6.30;99.90;;;;;;5112341;28;20371;-87
2023/12/03 06:01:23;;;;;;;;;;;-6.30;99.90;;;;;;5087503;28;19920;-88
2023/12/03 06:03:51;;;;;;;;;;;-6.30;99.90;;;;;;5107802;28;20010;-87
2023/12/03 06:06:17;;;;;;;;;;;-6.40;99.90;;;;;;5093254;28;19969;-87
2023/12/03 06:08:42;;;;;;;;;;;-6.50;99.90;;;;;;5094230;28;20325;-87
2023/12/03 06:11:07;;;;;;;;;;;-6.40;99.90;;;;;;5112041;28;19911;-86
2023/12/03 06:13:33;;;;;;;;;;;-6.40;99.90;;;;;;5112471;28;19916;-88
2023/12/03 06:15:58;;;;;;;;;;;-6.50;99.90;;;;;;5108499;28;20451;-87
2023/12/03 06:18:24;;;;;;;;;;;-6.50;99.90;;;;;;5110222;27;20304;-86
2023/12/03 06:20:49;;;;;;;;;;;-6.60;99.90;;;;;;5111566;28;19970;-87
2023/12/03 06:23:15;;;;;;;;;;;-6.50;99.90;;;;;;5094660;28;20378;-87
2023/12/03 06:25:40;;;;;;;;;;;-6.50;99.90;;;;;;5111227;28;20675;-87
2023/12/03 06:28:06;;;;;;;;;;;-6.80;99.90;;;;;;5093233;28;20363;-86
2023/12/03 06:30:31;;;;;;;;;;;-6.60;99.90;;;;;;5111390;28;19920;-87
2023/12/03 06:32:57;;;;;;;;;;;-6.50;99.90;;;;;;5090210;28;19923;-86
2023/12/03 06:35:22;;;;;;;;;;;-6.50;99.90;;;;;;5102801;28;20498;-86
2023/12/03 06:37:48;;;;;;;;;;;-6.60;99.90;;;;;;5091104;28;19992;-86
2023/12/03 06:40:14;;;;;;;;;;;-6.60;99.90;;;;;;5101805;28;19922;-88
2023/12/03 06:42:39;;;;;;;;;;;-6.70;99.90;;;;;;5089921;28;19918;-88
2023/12/03 06:45:05;;;;;;;;;;;-6.70;99.90;;;;;;5092903;28;19916;-89
2023/12/03 06:47:31;;;;;;;;;;;-6.70;99.90;;;;;;5094312;28;19923;-88
2023/12/03 06:49:56;;;;;;;;;;;-6.70;99.90;;;;;;5090403;28;19916;-88
2023/12/03 06:52:21;;;;;;;;;;;-6.70;99.90;;;;;;5100796;28;19951;-88
2023/12/03 06:54:47;;;;;;;;;;;-6.80;99.90;;;;;;5091031;28;19912;-87
2023/12/03 06:57:12;;;;;;;;;;;-6.80;99.90;;;;;;5109732;28;19919;-86
2023/12/03 06:59:38;;;;;;;;;;;-6.70;99.90;;;;;;5111840;28;19977;-87
2023/12/03 07:02:04;;;;;;;;;;;-6.70;99.90;;;;;;5093406;28;19916;-86
2023/12/03 07:04:29;;;;;;;;;;;-6.60;99.90;;;;;;5110876;28;19920;-87
2023/12/03 07:06:55;;;;;;;;;;;-6.70;99.90;;;;;;5110568;28;20010;-87
2023/12/03 07:09:21;;;;;;;;;;;-6.60;99.90;;;;;;5110761;28;19999;-87
2023/12/03 07:11:48;;;;;;;;;;;-6.60;99.90;;;;;;5089932;28;19934;-86
2023/12/03 07:14:13;;;;;;;;;;;-6.60;99.90;;;;;;5111031;28;19947;-86
2023/12/03 07:16:39;;;;;;;;;;;-6.60;99.90;;;;;;5110727;28;19951;-87
2023/12/03 07:19:04;;;;;;;;;;;-6.60;99.90;;;;;;5075663;28;19954;-87
2023/12/03 07:21:29;;;;;;;;;;;-6.60;99.90;;;;;;5110815;28;20427;-88
2023/12/03 07:23:55;;;;;;;;;;;-6.50;99.90;;;;;;5111251;28;19989;-85
2023/12/03 07:26:20;;;;;;;;;;;-6.50;99.90;;;;;;5109126;28;19920;-86
2023/12/03 07:28:47;;;;;;;;;;;-6.50;99.90;;;;;;5081821;28;19916;-86
2023/12/03 07:31:13;;;;;;;;;;;-6.50;99.90;;;;;;5080830;28;19916;-89
2023/12/03 07:33:38;;;;;;;;;;;-6.60;99.90;;;;;;5087694;28;19935;-89
2023/12/03 07:36:04;;;;;;;;;;;-6.60;99.90;;;;;;5092752;28;19940;-89
2023/12/03 07:38:29;;;;;;;;;;;-6.50;99.90;;;;;;5111101;28;20617;-87
2023/12/03 07:40:55;;;;;;;;;;;-6.60;99.90;;;;;;5103551;28;19912;-88
2023/12/03 07:43:21;;;;;;;;;;;-6.60;99.90;;;;;;5101382;28;19923;-86
2023/12/03 07:45:46;;;;;;;;;;;-6.60;99.90;;;;;;5085034;28;19920;-87
2023/12/03 07:48:12;;;;;;;;;;;-6.40;99.90;;;;;;5110538;28;20296;-88
2023/12/03 07:50:37;;;;;;;;;;;-6.30;99.90;;;;;;5077091;28;19912;-88
2023/12/03 07:53:03;;;;;;;;;;;-6.30;99.90;;;;;;5111498;28;20022;-89
2023/12/03 07:55:29;;;;;;;;;;;-6.30;99.90;;;;;;5093730;28;19916;-88
2023/12/03 07:57:54;;;;;;;;;;;-6.30;99.90;;;;;;5094920;28;19912;-88
2023/12/03 08:00:19;;;;;;;;;;;-6.30;99.90;;;;;;5110626;28;20845;-88
2023/12/03 08:02:46;;;;;;;;;;;-6.30;99.90;;;;;;5090672;28;19916;-88
2023/12/03 08:05:13;;;;;;;;;;;-6.30;99.90;;;;;;5103357;28;21270;-88
2023/12/03 08:07:40;;;;;;;;;;;-6.30;99.90;;;;;;5102277;28;20287;-89
2023/12/03 08:10:06;;;;;;;;;;;-6.20;99.90;;;;;;5082097;28;19933;-90
2023/12/03 08:12:32;;;;;;;;;;;-6.40;99.90;;;;;;5090960;28;19911;-88
2023/12/03 08:14:58;;;;;;;;;;;-6.30;99.90;;;;;;5113045;28;20386;-90
2023/12/03 08:17:23;;;;;;;;;;;-6.30;99.90;;;;;;5088317;28;19998;-89
2023/12/03 08:19:49;;;;;;;;;;;-6.20;99.90;;;;;;5099974;28;19913;-90
2023/12/03 08:22:14;;;;;;;;;;;-6.20;99.90;;;;;;5124527;27;19920;-89
2023/12/03 08:24:40;;;;;;;;;;;-6.30;99.90;;;;;;5104383;28;19921;-88
2023/12/03 08:27:05;;;;;;;;;;;-6.40;99.90;;;;;;5102036;28;20014;-86
2023/12/03 08:29:32;;;;;;;;;;;-6.50;99.90;;;;;;5088902;28;19974;-85
2023/12/03 08:31:58;;;;;;;;;;;-6.50;99.90;;;;;;5110798;28;19911;-86
2023/12/03 08:34:23;;;;;;;;;;;-6.40;99.90;;;;;;5089601;28;19922;-89
2023/12/03 08:36:50;;;;;;;;;;;-6.40;99.90;;;;;;5080469;28;19919;-89
2023/12/03 08:39:18;;;;;;;;;;;-6.40;99.90;;;;;;5074687;28;20554;-89
2023/12/03 08:41:44;;;;;;;;;;;-6.40;99.90;;;;;;5072901;28;20006;-90
2023/12/03 08:44:09;;;;;;;;;;;-6.30;99.90;;;;;;5066620;28;20057;-88
2023/12/03 08:46:39;;;;;;;;;;;-6.30;99.90;;;;;;5098592;28;19961;-89
2023/12/03 08:49:05;;;;;;;;;;;-6.30;99.90;;;;;;5125089;27;19932;-89
2023/12/03 08:51:31;;;;;;;;;;;-6.20;99.90;;;;;;5076610;28;19912;-90
2023/12/03 08:53:56;;;;;;;;;;;-6.40;99.90;;;;;;5083536;28;19920;-87
2023/12/03 08:56:22;;;;;;;;;;;-6.40;99.90;;;;;;5080734;28;19922;-88
2023/12/03 08:58:48;;;;;;;;;;;-6.40;99.90;;;;;;5075425;28;19919;-88
2023/12/03 09:01:13;;;;;;;;;;;-6.30;99.90;;;;;;5074926;28;19959;-88
2023/12/03 09:03:40;;;;;;;;;;;-6.30;99.90;;;;;;5079451;28;19968;-88
2023/12/03 09:06:06;;;;;;;;;;;-6.10;99.90;;;;;;5099450;28;19930;-88
2023/12/03 09:08:32;;;;;;;;;;;-5.90;99.90;;;;;;5096165;28;19912;-88
2023/12/03 09:10:58;;;;;;;;;;;-5.80;99.90;;;;;;5074632;28;19928;-87
2023/12/03 09:13:24;;;;;;;;;;;-5.70;99.90;;;;;;5103632;28;19919;-88
2023/12/03 09:15:51;;;;;;;;;;;-5.60;99.90;;;;;;5098124;28;19912;-87
2023/12/03 09:18:17;;;;;;;;;;;-5.50;99.90;;;;;;5077485;28;19938;-88
2023/12/03 09:20:42;;;;;;;;;;;-5.40;99.90;;;;;;5086476;28;20463;-89
2023/12/03 09:23:08;;;;;;;;;;;-5.30;99.90;;;;;;5083810;28;19912;-89
2023/12/03 09:25:34;;;;;;;;;;;-5.20;99.90;;;;;;5084524;28;20175;-88
2023/12/03 09:28:01;;;;;;;;;;;-5.20;99.90;;;;;;5079504;28;20268;-88
2023/12/03 09:30:28;;;;;;;;;;;-5.10;99.90;;;;;;5087202;28;19916;-91
2023/12/03 09:32:55;;;;;;;;;;;-5.00;99.90;;;;;;5117069;28;19933;-91
2023/12/03 09:35:22;;;;;;;;;;;-4.90;99.90;;;;;;5105403;28;19919;-93
2023/12/03 09:37:49;;;;;;;;;;;-4.90;99.90;;;;;;5098783;28;19931;-90
2023/12/03 09:40:17;;;;;;;;;;;-4.90;99.90;;;;;;5106446;28;20451;-92
2023/12/03 09:42:46;;;;;;;;;;;-4.80;99.90;;;;;;5098246;28;20372;-88
2023/12/03 09:45:12;;;;;;;;;;;-4.70;99.90;;;;;;5105496;28;19928;-88
2023/12/03 09:47:40;;;;;;;;;;;-4.70;99.90;;;;;;5096778;28;19934;-88
2023/12/03 09:50:06;;;;;;;;;;;-4.50;99.90;;;;;;5098784;28;19947;-85
2023/12/03 09:52:34;;;;;;;;;;;-4.40;99.90;;;;;;5100614;28;19923;-87
2023/12/03 09:55:01;;;;;;;;;;;-4.30;99.90;;;;;;5075875;28;19944;-86
2023/12/03 09:57:30;;;;;;;;;;;-4.20;99.90;;;;;;5079953;28;19999;-87
2023/12/03 10:00:02;;;;;;;;;;;-4.10;99.90;;;;;;5097815;28;19920;-86
2023/12/03 10:02:29;;;;;;;;;;;-4.00;99.90;;;;;;5100017;28;19917;-87
2023/12/03 10:04:59;;;;;;;;;;;-3.90;99.90;;;;;;5095863;28;19959;-87
2023/12/03 10:07:28;;;;;;;;;;;-3.80;99.90;;;;;;5109296;28;19916;-87
2023/12/03 10:09:58;;;;;;;;;;;-3.60;99.90;;;;;;5091334;28;20437;-87
2023/12/03 10:12:43;;;;;;;;;;;-3.60;99.90;;;;;;5089074;28;19938;-87
2023/12/03 10:15:09;;;;;;;;;;;-3.60;99.90;;;;;;5110945;28;20370;-87
2023/12/03 10:17:35;;;;;;;;;;;-3.40;99.90;;;;;;5112789;28;19986;-87
2023/12/03 10:20:22;;;;;;;;;;;-3.50;99.90;;;;;;5096326;28;19920;-87
2023/12/03 10:22:51;;;;;;;;;;;-3.50;99.90;;;;;;5098466;28;20470;-87
2023/12/03 10:25:24;;;;;;;;;;;-3.30;99.90;;;;;;5098402;28;19976;-85
2023/12/03 10:27:51;;;;;;;;;;;-3.30;99.90;;;;;;5087782;28;20015;-86
2023/12/03 10:30:17;;;;;;;;;;;-3.20;99.90;;;;;;5098517;28;20349;-87
2023/12/03 10:32:44;;;;;;;;;;;-3.20;99.90;;;;;;5109598;28;19951;-87
2023/12/03 10:35:10;;;;;;;;;;;-3.10;99.90;;;;;;5091196;28;19912;-88
2023/12/03 10:37:36;;;;;;;;;;;-3.00;99.90;;;;;;5084871;28;19916;-87
2023/12/03 10:40:02;;;;;;;;;;;-2.90;99.90;;;;;;5091239;28;19916;-87
2023/12/03 10:42:29;;;;;;;;;;;-2.90;99.90;;;;;;5092732;28;19912;-87
2023/12/03 10:44:54;;;;;;;;;;;-3.00;99.90;;;;;;5092178;28;20371;-88
2023/12/03 10:47:20;;;;;;;;;;;-3.00;99.90;;;;;;5111922;27;19912;-86
2023/12/03 10:49:46;;;;;;;;;;;-3.00;99.90;;;;;;5092142;28;19935;-86
2023/12/03 10:52:12;;;;;;;;;;;-3.10;99.90;;;;;;5110218;28;19916;-87
2023/12/03 10:54:38;;;;;;;;;;;-3.00;99.90;;;;;;5098192;28;20410;-87
2023/12/03 10:57:04;;;;;;;;;;;-3.00;99.90;;;;;;5096971;28;19915;-87
2023/12/03 10:59:32;;;;;;;;;;;-3.00;99.90;;;;;;5108618;28;19919;-87
2023/12/03 11:01:58;;;;;;;;;;;-2.90;99.90;;;;;;5075895;28;19923;-88
2023/12/03 11:04:34;;;;;;;;;;;-3.00;99.90;;;;;;5099638;28;19923;-88
2023/12/03 11:07:00;;;;;;;;;;;-2.90;99.90;;;;;;5106117;28;19960;-88
2023/12/03 11:09:26;;;;;;;;;;;-2.90;99.90;;;;;;5088283;28;19950;-87
2023/12/03 11:11:52;;;;;;;;;;;-2.80;99.90;;;;;;5078070;28;19985;-87
2023/12/03 11:14:19;;;;;;;;;;;-2.80;99.90;;;;;;5102470;28;19912;-88
2023/12/03 11:16:53;;;;;;;;;;;-2.90;99.90;;;;;;5100901;28;20015;-88
2023/12/03 11:19:21;;;;;;;;;;;-2.80;99.90;;;;;;5104368;28;19998;-87
2023/12/03 11:21:56;;;;;;;;;;;-2.70;99.90;;;;;;5083872;28;19923;-86
2023/12/03 11:24:40;;;;;;;;;;;-2.70;99.90;;;;;;5101873;28;19992;-86
2023/12/03 11:27:07;;;;;;;;;;;-2.70;99.90;;;;;;5100706;28;19919;-86
2023/12/03 11:29:53;;;;;;;;;;;-2.70;99.90;;;;;;5110871;28;20284;-87
2023/12/03 11:32:19;;;;;;;;;;;-2.70;99.90;;;;;;5108574;28;20370;-87
2023/12/03 11:34:53;;;;;;;;;;;-2.60;99.90;;;;;;5108624;28;19916;-88
2023/12/03 11:37:20;;;;;;;;;;;-2.60;99.90;;;;;;5108925;28;19931;-88
2023/12/03 11:39:46;;;;;;;;;;;-2.60;99.90;;;;;;5089120;28;19935;-87
2023/12/03 11:42:22;;;;;;;;;;;-2.50;99.90;;;;;;5090305;28;19970;-87
2023/12/03 11:44:48;;;;;;;;;;;-2.50;99.90;;;;;;5091919;28;19920;-87
2023/12/03 11:47:22;;;;;;;;;;;-2.50;99.90;;;;;;5102790;28;19940;-86
2023/12/03 11:49:54;;;;;;;;;;;-2.40;99.90;;;;;;5085706;28;19919;-87
2023/12/03 11:52:19;;;;;;;;;;;-2.40;99.90;;;;;;5093575;28;20019;-88
2023/12/03 11:54:53;;;;;;;;;;;-2.40;99.90;;;;;;5100285;28;20015;-86
2023/12/03 11:57:18;;;;;;;;;;;-2.40;99.90;;;;;;5091000;28;19965;-86
2023/12/03 11:59:52;;;;;;;;;;;-2.40;99.90;;;;;;5075385;28;19920;-87
2023/12/03 12:02:18;;;;;;;;;;;-2.40;99.90;;;;;;5093884;27;20386;-87
2023/12/03 12:07:30;;;;;;;;;;;-2.40;99.90;;;;;;5110830;28;19916;-86
2023/12/03 12:09:55;;;;;;;;;;;-2.40;99.90;;;;;;5093365;28;19965;-88
2023/12/03 12:12:21;;;;;;;;;;;-2.40;99.90;;;;;;5105024;28;19951;-89
2023/12/03 12:14:47;;;;;;;;;;;-2.40;99.90;;;;;;5091377;28;19981;-88
2023/12/03 12:17:13;;;;;;;;;;;-2.30;99.90;;;;;;5107595;28;19915;-89
2023/12/03 12:19:45;;;;;;;;;;;-2.40;99.90;;;;;;5110816;28;19951;-87
2023/12/03 12:22:11;;;;;;;;;;;-2.30;99.90;;;;;;5109892;28;19915;-88
2023/12/03 12:24:37;;;;;;;;;;;-2.50;99.90;;;;;;5087142;28;20018;-87
2023/12/03 12:27:02;;;;;;;;;;;-2.50;99.90;;;;;;5111608;28;20348;-87
2023/12/03 12:29:28;;;;;;;;;;;-2.50;99.90;;;;;;5088842;28;20003;-87
2023/12/03 12:31:53;;;;;;;;;;;-2.40;99.90;;;;;;5105984;28;19916;-87
2023/12/03 12:34:20;;;;;;;;;;;-2.40;99.90;;;;;;5092707;28;19958;-86
2023/12/03 12:36:47;;;;;;;;;;;-2.40;99.90;;;;;;5110770;28;19916;-86
2023/12/03 12:39:40;;;;;;;;;;;-2.30;99.90;;;;;;5110467;28;19916;-86
2023/12/03 12:42:06;;;;;;;;;;;-2.20;99.90;;;;;;5103135;28;19918;-84
2023/12/03 12:44:42;;;;;;;;;;;-2.40;99.90;;;;;;5083048;28;20287;-87
2023/12/03 12:47:07;;;;;;;;;;;-2.40;99.90;;;;;;5091752;28;20331;-87
2023/12/03 12:49:33;;;;;;;;;;;-2.40;99.90;;;;;;5110291;28;19922;-86
2023/12/03 12:52:17;;;;;;;;;;;-2.30;99.90;;;;;;5104563;28;19915;-88
2023/12/03 12:54:49;;;;;;;;;;;-2.30;99.90;;;;;;5101185;28;19922;-87
2023/12/03 12:57:15;;;;;;;;;;;-2.20;99.90;;;;;;5070816;28;19931;-87
2023/12/03 12:59:41;;;;;;;;;;;-2.30;99.90;;;;;;5105876;28;19918;-86
2023/12/03 13:02:07;;;;;;;;;;;-2.30;99.90;;;;;;5095763;28;19916;-92
2023/12/03 13:04:33;;;;;;;;;;;-2.40;99.90;;;;;;5109105;28;19978;-87
2023/12/03 13:07:00;;;;;;;;;;;-2.40;99.90;;;;;;5086228;28;19920;-88
2023/12/03 13:09:26;;;;;;;;;;;-2.30;99.90;;;;;;5108498;28;19973;-90
2023/12/03 13:11:51;;;;;;;;;;;-2.30;99.90;;;;;;5097541;28;19915;-89
2023/12/03 13:14:17;;;;;;;;;;;-2.40;99.90;;;;;;5109501;28;19915;-92
2023/12/03 13:16:45;;;;;;;;;;;-2.30;99.90;;;;;;5088115;28;20477;-89
2023/12/03 13:19:11;;;;;;;;;;;-2.40;99.90;;;;;;5096572;28;20351;-89
2023/12/03 13:21:42;;;;;;;;;;;-2.30;99.90;;;;;;5103181;28;19916;-88
2023/12/03 13:24:19;;;;;;;;;;;-2.40;99.90;;;;;;5108728;28;19958;-91
2023/12/03 13:26:50;;;;;;;;;;;-2.40;99.90;;;;;;5109467;28;19966;-88
2023/12/03 13:29:15;;;;;;;;;;;-2.40;99.90;;;;;;5086773;28;19924;-88
2023/12/03 13:31:44;;;;;;;;;;;-2.40;99.90;;;;;;5101935;28;19924;-88
2023/12/03 13:34:12;;;;;;;;;;;-2.40;99.90;;;;;;5094487;28;19939;-89
2023/12/03 13:36:38;;;;;;;;;;;-2.40;99.90;;;;;;5107676;28;19930;-85
2023/12/03 13:39:03;;;;;;;;;;;-2.30;99.90;;;;;;5089777;28;20323;-88
2023/12/03 13:41:30;;;;;;;;;;;-2.30;99.90;;;;;;5094104;28;19984;-89
2023/12/03 13:43:55;;;;;;;;;;;-2.30;99.90;;;;;;5085951;28;19931;-87
2023/12/03 13:46:21;;;;;;;;;;;-2.40;99.90;;;;;;5078944;28;20301;-87
2023/12/03 13:48:46;;;;;;;;;;;-2.40;99.90;;;;;;5076418;28;19916;-88
2023/12/03 13:51:17;;;;;;;;;;;-2.40;99.90;;;;;;5108827;28;19966;-88
2023/12/03 13:53:43;;;;;;;;;;;-2.40;99.90;;;;;;5111400;28;19919;-87
2023/12/03 13:56:12;;;;;;;;;;;-2.30;99.90;;;;;;5089780;28;19916;-87
2023/12/03 13:58:38;;;;;;;;;;;-2.30;99.90;;;;;;5100258;28;19956;-86
2023/12/03 14:01:03;;;;;;;;;;;-2.30;99.90;;;;;;5086153;28;20018;-86
2023/12/03 14:03:40;;;;;;;;;;;-2.30;99.90;;;;;;5104972;28;19958;-87
2023/12/03 14:06:06;;;;;;;;;;;-2.30;99.90;;;;;;5094023;28;19920;-85
2023/12/03 14:08:41;;;;;;;;;;;-2.30;99.90;;;;;;5110219;28;19911;-86
2023/12/03 14:11:12;;;;;;;;;;;-2.30;99.90;;;;;;5077079;28;19911;-86
2023/12/03 14:13:38;;;;;;;;;;;-2.30;99.90;;;;;;5090616;28;19916;-86
2023/12/03 14:16:04;;;;;;;;;;;-2.30;99.90;;;;;;5106848;28;20595;-86